Ripon, Canada
Current Conditions -  °F | °C
As of 11:00 AM on Friday 28 Nov 2014 (Local Time) from CYND Reporting Station
Light Snow Light Snow  
Wind Chill: 11°   Ceiling: 2600
Heat Index: 21°   Visibility: 4mi
Dew Point: 12°   Wind: 9mph
Humidity: 68%   Direction: 310°NW
Pressure: 30.15"   Gusts: NA
Location:  45.78°N, 75.1°W
Report Text: CYND 281600Z 31008KT 270V340 4SM -SN OVC026 M06/M11 A3015 RMK SC8 VIS LWR W SLP213
Loading
Personal Weather Stations






























Interactive Weather Map New forecast layout! Learn more

10-Day Weather Forecast

Advertisements
Track Severe Weather on mobile